createdAt,value
2022-11-13T00:01:12.839Z,26.13
2022-11-13T00:03:41.350Z,25.33
2022-11-13T00:06:11.408Z,26.77
2022-11-13T00:08:39.910Z,25.88
2022-11-13T00:11:10.546Z,26.92
2022-11-13T00:13:39.221Z,24.45
2022-11-13T00:16:10.796Z,26.55
2022-11-13T00:18:39.343Z,24.35
2022-11-13T00:21:08.598Z,26.38
2022-11-13T00:23:38.720Z,27.20
2022-11-13T00:26:08.480Z,23.50
2022-11-13T00:28:36.943Z,25.58
2022-11-13T00:31:06.048Z,25.67
2022-11-13T00:36:26.248Z,25.33
2022-11-13T00:38:56.502Z,25.02
2022-11-13T00:41:25.277Z,28.65
2022-11-13T00:43:53.766Z,26.55
2022-11-13T00:46:22.205Z,26.70
2022-11-13T00:48:50.669Z,29.40
2022-11-13T00:51:19.760Z,26.90
2022-11-13T00:53:48.334Z,24.50
2022-11-13T00:56:18.145Z,27.33
2022-11-13T00:58:46.594Z,25.50
2022-11-13T01:01:16.818Z,29.45
2022-11-13T01:03:45.289Z,24.85
2022-11-13T01:06:15.421Z,26.70
2022-11-13T01:08:44.027Z,24.38
2022-11-13T01:11:13.907Z,23.73
2022-11-13T01:13:45.338Z,24.58
2022-11-13T01:16:14.777Z,26.02
2022-11-13T01:18:44.058Z,24.17
2022-11-13T01:21:14.143Z,26.67
2022-11-13T01:23:42.941Z,24.52
2022-11-13T01:26:13.620Z,27.70
2022-11-13T01:28:43.738Z,28.55
2022-11-13T01:31:13.923Z,26.42
2022-11-13T01:33:42.494Z,25.23
2022-11-13T01:36:13.153Z,23.42
2022-11-13T01:38:41.641Z,25.67
2022-11-13T01:41:12.317Z,25.77
2022-11-13T01:43:40.856Z,25.50
2022-11-13T01:46:22.933Z,27.05
2022-11-13T01:48:54.248Z,25.13
2022-11-13T01:51:27.997Z,22.75
2022-11-13T01:53:56.457Z,24.27
2022-11-13T01:56:24.976Z,23.50
2022-11-13T01:58:58.622Z,21.90
2022-11-13T02:01:28.488Z,24.40
2022-11-13T02:03:56.908Z,23.48
2022-11-13T02:06:25.654Z,24.27
2022-11-13T02:08:54.398Z,20.88
2022-11-13T02:11:23.709Z,24.50
2022-11-13T02:13:52.187Z,21.65
2022-11-13T02:16:20.687Z,26.02
2022-11-13T02:18:50.473Z,25.05
2022-11-13T02:21:35.790Z,27.55
2022-11-13T02:24:17.581Z,23.90
2022-11-13T02:26:46.171Z,23.42
2022-11-13T02:29:14.701Z,26.42
2022-11-13T02:31:43.362Z,24.75
2022-11-13T02:34:11.901Z,26.55
2022-11-13T02:36:42.856Z,23.08
2022-11-13T02:39:13.277Z,22.60
2022-11-13T02:41:43.204Z,25.77
2022-11-13T02:44:11.733Z,24.10
2022-11-13T02:46:40.340Z,24.92
2022-11-13T02:49:08.864Z,24.48
2022-11-13T02:51:37.426Z,23.00
2022-11-13T02:54:06.395Z,23.08
2022-11-13T02:56:34.878Z,21.58
2022-11-13T02:59:04.778Z,23.77
2022-11-13T03:01:33.552Z,23.00
2022-11-13T03:04:02.459Z,24.33
2022-11-13T03:06:30.946Z,25.30
2022-11-13T03:08:59.427Z,23.60
2022-11-13T03:11:27.916Z,24.55
2022-11-13T03:13:56.796Z,24.38
2022-11-13T03:16:26.633Z,24.58
2022-11-13T03:18:56.507Z,22.52
2022-11-13T03:21:25.153Z,26.23
2022-11-13T03:23:55.259Z,23.52
2022-11-13T03:26:23.733Z,23.15
2022-11-13T03:28:52.436Z,24.92
2022-11-13T03:31:21.004Z,25.85
2022-11-13T03:33:53.812Z,20.58
2022-11-13T03:36:22.576Z,23.83
2022-11-13T03:38:51.148Z,23.55
2022-11-13T03:41:19.708Z,19.98
2022-11-13T03:43:48.204Z,22.35
2022-11-13T03:46:16.750Z,21.30
2022-11-13T03:48:45.299Z,23.27
2022-11-13T03:51:15.140Z,22.55
2022-11-13T03:53:43.788Z,22.20
2022-11-13T03:56:12.375Z,21.30
2022-11-13T03:58:43.665Z,23.63
2022-11-13T04:01:14.421Z,21.67
2022-11-13T04:03:42.903Z,22.15
2022-11-13T04:06:11.564Z,22.52
2022-11-13T04:08:41.546Z,22.30
2022-11-13T04:11:10.602Z,22.42
2022-11-13T04:13:39.143Z,21.92
2022-11-13T04:16:08.208Z,23.25
2022-11-13T04:18:36.678Z,22.90
2022-11-13T04:21:06.020Z,22.10
2022-11-13T04:23:34.611Z,21.27
2022-11-13T04:26:04.468Z,20.52
2022-11-13T04:28:33.049Z,22.15
2022-11-13T04:31:01.596Z,21.80
2022-11-13T04:33:30.033Z,19.95
2022-11-13T04:35:58.627Z,21.42
2022-11-13T04:38:27.522Z,21.20
2022-11-13T04:41:16.322Z,20.20
2022-11-13T04:43:45.180Z,22.52
2022-11-13T04:46:13.786Z,19.90
2022-11-13T04:48:42.232Z,23.45
2022-11-13T04:51:10.799Z,19.73
2022-11-13T04:53:39.393Z,22.63
2022-11-13T04:56:08.273Z,21.45
2022-11-13T04:58:36.846Z,21.88
2022-11-13T05:01:06.651Z,20.38
2022-11-13T05:03:35.248Z,22.02
2022-11-13T05:06:05.351Z,21.33
2022-11-13T05:08:33.957Z,19.15
2022-11-13T05:11:02.525Z,19.00
2022-11-13T05:13:32.292Z,20.88
2022-11-13T05:16:04.432Z,20.05
2022-11-13T05:18:36.016Z,22.80
2022-11-13T05:21:04.969Z,24.88
2022-11-13T05:23:33.843Z,23.08
2022-11-13T05:26:06.152Z,21.33
2022-11-13T05:28:34.648Z,23.25
2022-11-13T05:31:07.556Z,21.80
2022-11-13T05:33:37.638Z,19.92
2022-11-13T05:36:07.840Z,20.75
2022-11-13T05:38:36.528Z,23.50
2022-11-13T05:41:06.247Z,21.02
2022-11-13T05:43:35.031Z,22.08
2022-11-13T05:46:04.331Z,21.73
2022-11-13T05:48:32.980Z,23.70
2022-11-13T05:51:06.938Z,23.40
2022-11-13T05:53:35.624Z,21.02
2022-11-13T05:56:04.540Z,20.88
2022-11-13T05:58:33.311Z,21.85
2022-11-13T06:01:12.120Z,19.48
2022-11-13T06:03:40.746Z,20.30
2022-11-13T06:06:15.655Z,20.92
2022-11-13T06:08:44.219Z,24.35
2022-11-13T06:11:15.995Z,24.60
2022-11-13T06:13:44.509Z,21.80
2022-11-13T06:16:14.670Z,24.38
2022-11-13T06:18:44.072Z,25.15
2022-11-13T06:21:14.862Z,25.65
2022-11-13T06:23:43.642Z,28.52
2022-11-13T06:26:14.151Z,22.88
2022-11-13T06:28:42.653Z,24.83
2022-11-13T06:31:12.543Z,22.38
2022-11-13T06:33:41.676Z,21.75
2022-11-13T06:36:13.586Z,26.50
2022-11-13T06:38:42.576Z,22.65
2022-11-13T06:41:15.046Z,23.02
2022-11-13T06:43:44.053Z,23.30
2022-11-13T06:46:14.779Z,22.10
2022-11-13T06:48:43.467Z,20.08
2022-11-13T06:51:16.507Z,24.23
2022-11-13T06:53:45.156Z,24.58
2022-11-13T06:56:13.782Z,25.25
2022-11-13T06:58:43.843Z,25.10
2022-11-13T07:01:13.539Z,19.95
2022-11-13T07:03:42.609Z,22.67
2022-11-13T07:06:14.088Z,24.40
2022-11-13T07:08:44.235Z,25.35
2022-11-13T07:11:15.812Z,25.00
2022-11-13T07:13:44.493Z,22.65
2022-11-13T07:16:17.316Z,23.08
2022-11-13T07:18:50.774Z,24.17
2022-11-13T07:21:19.452Z,22.42
2022-11-13T07:23:50.484Z,21.40
2022-11-13T07:26:19.165Z,22.23
2022-11-13T07:28:47.746Z,25.55
2022-11-13T07:31:17.438Z,22.40
2022-11-13T07:33:46.054Z,23.15
2022-11-13T07:36:14.714Z,24.27
2022-11-13T07:38:43.373Z,24.40
2022-11-13T07:41:13.218Z,19.42
2022-11-13T07:43:41.860Z,21.75
2022-11-13T07:46:10.389Z,21.65
2022-11-13T07:48:39.307Z,23.63
2022-11-13T07:51:07.846Z,23.52
2022-11-13T07:53:39.137Z,21.63
2022-11-13T07:56:08.746Z,19.25
2022-11-13T07:58:38.905Z,23.73
2022-11-13T08:01:07.683Z,22.20
2022-11-13T08:03:36.212Z,24.02
2022-11-13T08:06:06.754Z,19.95
2022-11-13T08:08:35.504Z,23.38
2022-11-13T08:11:08.993Z,21.75
2022-11-13T08:13:39.161Z,20.63
2022-11-13T08:16:09.078Z,23.55
2022-11-13T08:18:37.669Z,21.35
2022-11-13T08:21:13.500Z,21.83
2022-11-13T08:23:43.560Z,21.90
2022-11-13T08:26:12.364Z,23.20
2022-11-13T08:28:42.844Z,22.88
2022-11-13T08:31:12.278Z,22.25
2022-11-13T08:33:40.815Z,23.77
2022-11-13T08:36:10.249Z,27.05
2022-11-13T08:38:38.815Z,22.95
2022-11-13T08:41:09.643Z,27.08
2022-11-13T08:43:38.991Z,20.65
2022-11-13T08:46:09.069Z,21.92
2022-11-13T08:48:39.264Z,29.95
2022-11-13T08:51:07.791Z,30.65
2022-11-13T08:53:36.309Z,29.13
2022-11-13T08:56:04.977Z,30.13
2022-11-13T08:58:33.496Z,28.50
2022-11-13T09:01:02.157Z,26.65
2022-11-13T09:03:32.210Z,45.95
2022-11-13T09:06:00.723Z,23.20
2022-11-13T09:08:32.111Z,29.02
2022-11-13T09:11:04.734Z,27.02
2022-11-13T09:13:34.233Z,27.48
2022-11-13T09:16:03.259Z,28.38
2022-11-13T09:18:33.111Z,28.25
2022-11-13T09:21:02.787Z,25.20
2022-11-13T09:23:31.539Z,27.20
2022-11-13T09:26:02.678Z,24.45
2022-11-13T09:28:31.479Z,24.40
2022-11-13T09:31:00.192Z,24.45
2022-11-13T09:33:28.767Z,24.85
2022-11-13T09:35:58.744Z,24.80
2022-11-13T09:38:27.522Z,24.08
2022-11-13T09:40:58.702Z,24.75
2022-11-13T09:43:32.540Z,20.42
2022-11-13T09:46:04.998Z,20.73
2022-11-13T09:48:35.943Z,23.45
2022-11-13T09:51:17.515Z,25.70
2022-11-13T09:53:46.203Z,25.17
2022-11-13T09:56:23.834Z,22.33
2022-11-13T09:58:58.408Z,20.90
2022-11-13T10:01:31.386Z,30.80
2022-11-13T10:04:04.204Z,24.02
2022-11-13T10:07:02.118Z,22.40
2022-11-13T10:09:50.495Z,23.90
2022-11-13T10:12:18.911Z,22.88
2022-11-13T10:14:48.396Z,22.13
2022-11-13T10:17:20.152Z,24.65
2022-11-13T10:19:56.319Z,22.33
2022-11-13T10:22:33.545Z,26.88
2022-11-13T10:25:12.751Z,25.20
2022-11-13T10:27:41.527Z,22.25
2022-11-13T10:30:16.054Z,26.73
2022-11-13T10:32:46.316Z,27.90
2022-11-13T10:35:32.514Z,22.45
2022-11-13T10:38:08.521Z,23.77
2022-11-13T10:40:39.384Z,21.55
2022-11-13T10:43:13.295Z,27.73
2022-11-13T10:45:42.220Z,24.95
2022-11-13T10:48:21.793Z,23.90
2022-11-13T10:50:56.017Z,24.45
2022-11-13T10:53:28.598Z,27.73
2022-11-13T10:55:58.850Z,23.90
2022-11-13T10:58:28.368Z,20.88
2022-11-13T11:00:57.153Z,24.35
2022-11-13T11:03:27.162Z,21.88
2022-11-13T11:06:01.393Z,22.90
2022-11-13T11:08:34.165Z,25.17
2022-11-13T11:11:21.516Z,20.58
2022-11-13T11:13:50.050Z,23.83
2022-11-13T11:16:22.655Z,21.85
2022-11-13T11:18:54.942Z,21.52
2022-11-13T11:21:27.170Z,25.70
2022-11-13T11:24:00.342Z,23.20
2022-11-13T11:26:32.983Z,20.70
2022-11-13T11:29:09.613Z,21.48
2022-11-13T11:31:43.065Z,23.65
2022-11-13T11:34:20.048Z,23.42
2022-11-13T11:36:56.626Z,21.75
2022-11-13T11:39:36.262Z,22.15
2022-11-13T11:42:19.920Z,22.30
2022-11-13T11:45:04.892Z,25.85
2022-11-13T11:47:34.177Z,25.10
2022-11-13T11:50:02.967Z,25.55
2022-11-13T11:52:43.414Z,24.92
2022-11-13T11:55:42.510Z,26.35
2022-11-13T11:58:20.863Z,30.42
2022-11-13T12:00:52.257Z,28.60
2022-11-13T12:03:50.660Z,45.47
2022-11-13T12:06:25.424Z,46.53
2022-11-13T12:08:57.753Z,45.63
2022-11-13T12:11:30.824Z,29.65
2022-11-13T12:14:05.606Z,31.63
2022-11-13T12:16:41.464Z,34.75
2022-11-13T12:19:19.152Z,33.70
2022-11-13T12:21:53.885Z,33.45
2022-11-13T12:24:59.853Z,29.45
2022-11-13T12:27:35.485Z,29.00
2022-11-13T12:30:14.415Z,28.90
2022-11-13T12:33:17.419Z,30.73
2022-11-13T12:35:46.716Z,30.92
2022-11-13T12:38:24.703Z,45.03
2022-11-13T12:41:00.383Z,31.27
2022-11-13T12:43:44.978Z,30.63
2022-11-13T12:46:13.718Z,28.27
2022-11-13T12:48:43.312Z,29.73
2022-11-13T12:51:14.061Z,30.42
2022-11-13T12:53:47.695Z,32.60
2022-11-13T12:56:19.437Z,29.90
2022-11-13T12:59:24.232Z,29.88
2022-11-13T13:01:49.059Z,33.95
2022-11-13T13:04:41.427Z,30.52
2022-11-13T13:07:23.525Z,30.17
2022-11-13T13:10:01.614Z,29.92
2022-11-13T13:12:44.195Z,30.48
2022-11-13T13:15:30.408Z,30.42
2022-11-13T13:18:11.008Z,31.25
2022-11-13T13:20:40.893Z,30.77
2022-11-13T13:23:12.953Z,30.85
2022-11-13T13:25:41.881Z,30.23
2022-11-13T13:28:24.283Z,30.40
2022-11-13T13:31:00.715Z,24.90
2022-11-13T13:33:43.234Z,30.20
2022-11-13T13:36:21.708Z,32.15
2022-11-13T13:38:58.727Z,29.27
2022-11-13T13:41:40.831Z,27.35
2022-11-13T13:44:23.664Z,29.00
2022-11-13T13:46:53.452Z,32.28
2022-11-13T13:49:23.196Z,29.80
2022-11-13T13:51:52.845Z,29.63
2022-11-13T13:54:23.202Z,31.50
2022-11-13T13:56:51.716Z,32.60
2022-11-13T13:59:21.724Z,32.67
2022-11-13T14:01:59.579Z,31.55
2022-11-13T14:04:29.410Z,33.08
2022-11-13T14:06:59.286Z,31.50
2022-11-13T14:09:29.426Z,39.72
2022-11-13T14:12:00.698Z,38.35
2022-11-13T14:14:30.157Z,38.20
2022-11-13T14:17:01.919Z,38.80
2022-11-13T14:19:30.360Z,33.30
2022-11-13T14:22:00.517Z,33.65
2022-11-13T14:24:33.927Z,31.45
2022-11-13T14:27:06.003Z,32.60
2022-11-13T14:29:36.876Z,31.45
2022-11-13T14:32:11.097Z,33.53
2022-11-13T14:34:44.771Z,38.60
2022-11-13T14:37:24.495Z,38.28
2022-11-13T14:39:53.187Z,39.63
2022-11-13T14:42:22.815Z,37.28
2022-11-13T14:44:51.375Z,35.83
2022-11-13T14:47:26.479Z,38.90
2022-11-13T14:49:55.148Z,37.05
2022-11-13T14:52:25.532Z,43.20
2022-11-13T14:55:15.848Z,38.25
2022-11-13T14:57:49.431Z,38.28
2022-11-13T15:00:19.051Z,36.85
2022-11-13T15:02:48.907Z,35.97
2022-11-13T15:05:17.383Z,36.65
2022-11-13T15:07:46.611Z,38.10
2022-11-13T15:10:17.654Z,38.10
2022-11-13T15:12:46.604Z,37.03
2022-11-13T15:15:16.279Z,37.58
2022-11-13T15:17:45.176Z,35.88
2022-11-13T15:20:19.857Z,38.50
2022-11-13T15:22:48.899Z,34.58
2022-11-13T15:25:18.579Z,37.53
2022-11-13T15:27:47.590Z,37.58
2022-11-13T15:30:16.683Z,36.08
2022-11-13T15:32:46.200Z,34.30
2022-11-13T15:35:20.095Z,35.05
2022-11-13T15:37:50.317Z,35.70
2022-11-13T15:40:19.737Z,30.63
2022-11-13T15:42:48.706Z,39.00
2022-11-13T15:45:18.037Z,31.65
2022-11-13T15:47:46.908Z,36.08
2022-11-13T15:50:17.690Z,36.17
2022-11-13T15:52:47.275Z,35.15
2022-11-13T15:55:26.918Z,32.92
2022-11-13T15:57:55.768Z,31.83
2022-11-13T16:00:27.002Z,32.60
2022-11-13T16:02:56.606Z,39.35
2022-11-13T16:05:29.475Z,36.95
2022-11-13T16:07:58.793Z,36.92
2022-11-13T16:10:27.611Z,33.08
2022-11-13T16:12:56.675Z,31.40
2022-11-13T16:15:25.472Z,35.10
2022-11-13T16:17:55.578Z,33.67
2022-11-13T16:20:24.534Z,34.47
2022-11-13T16:22:55.099Z,35.20
2022-11-13T16:25:24.046Z,35.08
2022-11-13T16:27:54.746Z,31.95
2022-11-13T16:30:25.427Z,33.90
2022-11-13T16:32:54.364Z,37.97
2022-11-13T16:35:23.446Z,30.75
2022-11-13T16:37:53.775Z,33.53
2022-11-13T16:40:23.643Z,35.25
2022-11-13T16:42:52.784Z,29.83
2022-11-13T16:45:21.973Z,33.35
2022-11-13T16:47:51.502Z,32.47
2022-11-13T16:50:21.607Z,34.78
2022-11-13T16:52:52.928Z,32.95
2022-11-13T16:55:21.871Z,35.80
2022-11-13T16:57:51.740Z,35.97
2022-11-13T17:00:20.996Z,34.53
2022-11-13T17:02:52.728Z,34.65
2022-11-13T17:05:23.028Z,33.10
2022-11-13T17:07:55.720Z,32.17
2022-11-13T17:10:31.272Z,34.60
2022-11-13T17:13:00.568Z,31.98
2022-11-13T17:15:29.378Z,34.65
2022-11-13T17:17:58.528Z,31.58
2022-11-13T17:20:27.613Z,37.17
2022-11-13T17:22:57.783Z,36.85
2022-11-13T17:25:28.185Z,31.17
2022-11-13T17:27:57.014Z,34.25
2022-11-13T17:30:25.901Z,31.52
2022-11-13T17:32:54.658Z,34.90
2022-11-13T17:35:23.473Z,36.97
2022-11-13T17:37:52.268Z,35.17
2022-11-13T17:40:22.458Z,32.13
2022-11-13T17:42:51.173Z,32.97
2022-11-13T17:45:20.057Z,33.70
2022-11-13T17:47:50.060Z,30.70
2022-11-13T17:50:19.078Z,36.53
2022-11-13T17:52:47.833Z,35.63
2022-11-13T17:55:17.412Z,36.58
2022-11-13T17:57:47.612Z,29.35
2022-11-13T18:00:17.148Z,33.65
2022-11-13T18:02:46.574Z,33.00
2022-11-13T18:05:15.308Z,35.30
2022-11-13T18:07:44.008Z,32.47
2022-11-13T18:10:12.840Z,29.85
2022-11-13T18:12:41.645Z,28.58
2022-11-13T18:15:12.270Z,34.17
2022-11-13T18:17:41.039Z,34.30
2022-11-13T18:20:10.379Z,30.98
2022-11-13T18:22:39.187Z,31.10
2022-11-13T18:25:09.081Z,29.98
2022-11-13T18:27:38.907Z,28.65
2022-11-13T18:30:09.792Z,35.70
2022-11-13T18:32:39.953Z,35.85
2022-11-13T18:35:09.524Z,36.15
2022-11-13T18:37:38.325Z,33.50
2022-11-13T18:40:08.461Z,33.70
2022-11-13T18:42:37.323Z,37.92
2022-11-13T18:45:07.204Z,32.75
2022-11-13T18:47:36.153Z,34.08
2022-11-13T18:50:06.808Z,39.65
2022-11-13T18:52:35.722Z,32.70
2022-11-13T18:55:04.597Z,33.97
2022-11-13T18:57:33.331Z,35.53
2022-11-13T19:00:02.124Z,33.60
2022-11-13T19:02:31.048Z,35.08
2022-11-13T19:04:59.842Z,35.15
2022-11-13T19:07:30.034Z,35.50
2022-11-13T19:09:58.909Z,31.45
2022-11-13T19:12:27.701Z,30.60
2022-11-13T19:14:56.686Z,35.22
2022-11-13T19:17:25.519Z,37.38
2022-11-13T19:19:54.349Z,35.28
2022-11-13T19:22:23.269Z,35.97
2022-11-13T19:24:53.712Z,40.40
2022-11-13T19:27:22.688Z,37.35
2022-11-13T19:29:51.568Z,33.00
2022-11-13T19:32:20.327Z,37.53
2022-11-13T19:34:49.156Z,35.28
2022-11-13T19:37:19.439Z,33.20
2022-11-13T19:39:49.078Z,35.67
2022-11-13T19:42:19.316Z,36.15
2022-11-13T19:44:48.091Z,36.40
2022-11-13T19:47:16.935Z,36.83
2022-11-13T19:49:46.058Z,35.10
2022-11-13T19:52:14.834Z,35.40
2022-11-13T19:54:45.210Z,36.30
2022-11-13T19:57:13.967Z,35.45
2022-11-13T19:59:44.153Z,37.90
2022-11-13T20:02:14.378Z,35.72
2022-11-13T20:04:43.217Z,34.45
2022-11-13T20:07:12.543Z,35.65
2022-11-13T20:09:41.584Z,36.15
2022-11-13T20:12:10.303Z,32.25
2022-11-13T20:14:40.226Z,34.58
2022-11-13T20:17:10.536Z,35.58
2022-11-13T20:19:39.303Z,34.05
2022-11-13T20:22:08.217Z,31.63
2022-11-13T20:24:37.080Z,37.53
2022-11-13T20:27:06.064Z,34.63
2022-11-13T20:29:34.846Z,36.90
2022-11-13T20:32:03.907Z,31.42
2022-11-13T20:34:34.003Z,36.28
2022-11-13T20:37:03.005Z,34.20
2022-11-13T20:39:32.503Z,33.45
2022-11-13T20:42:01.304Z,33.45
2022-11-13T20:44:30.093Z,36.00
2022-11-13T20:46:59.002Z,33.30
2022-11-13T20:49:27.714Z,34.35
2022-11-13T20:51:58.003Z,34.05
2022-11-13T20:54:27.516Z,33.72
2022-11-13T20:56:56.507Z,32.83
2022-11-13T20:59:25.453Z,34.20
2022-11-13T21:01:54.635Z,29.42
2022-11-13T21:04:23.395Z,35.05
2022-11-13T21:06:52.464Z,30.27
2022-11-13T21:09:22.659Z,31.20
2022-11-13T21:11:52.352Z,36.35
2022-11-13T21:14:21.269Z,32.17
2022-11-13T21:16:50.062Z,31.48
2022-11-13T21:19:18.928Z,32.47
2022-11-13T21:21:47.652Z,32.13
2022-11-13T21:24:16.537Z,35.05
2022-11-13T21:26:48.900Z,31.13
2022-11-13T21:29:17.972Z,31.98
2022-11-13T21:31:46.731Z,31.40
2022-11-13T21:34:15.584Z,35.90
2022-11-13T21:36:44.885Z,28.70
2022-11-13T21:39:13.695Z,34.00
2022-11-13T21:41:42.550Z,34.33
2022-11-13T21:44:12.849Z,34.92
2022-11-13T21:46:42.928Z,29.38
2022-11-13T21:49:13.084Z,31.05
2022-11-13T21:51:42.786Z,29.05
2022-11-13T21:54:11.438Z,31.48
2022-11-13T21:56:41.925Z,28.15
2022-11-13T21:59:11.860Z,31.48
2022-11-13T22:01:40.398Z,29.52
2022-11-13T22:04:08.910Z,30.13
2022-11-13T22:06:37.526Z,32.25
2022-11-13T22:09:08.083Z,32.35
2022-11-13T22:11:37.742Z,29.30
2022-11-13T22:14:06.633Z,30.58
2022-11-13T22:16:38.400Z,32.78
2022-11-13T22:19:08.797Z,29.50
2022-11-13T22:21:37.331Z,32.35
2022-11-13T22:24:06.600Z,30.92
2022-11-13T22:26:37.856Z,31.15
2022-11-13T22:29:06.511Z,32.05
2022-11-13T22:31:36.993Z,30.10
2022-11-13T22:34:05.837Z,29.27
2022-11-13T22:36:36.607Z,30.27
2022-11-13T22:39:06.598Z,32.75
2022-11-13T22:41:36.420Z,30.92
2022-11-13T22:44:06.807Z,33.00
2022-11-13T22:46:37.176Z,28.60
2022-11-13T22:49:06.765Z,31.92
2022-11-13T22:51:38.082Z,29.15
2022-11-13T22:54:08.431Z,30.55
2022-11-13T22:56:37.486Z,30.23
2022-11-13T22:59:07.055Z,28.88
2022-11-13T23:01:38.302Z,28.83
2022-11-13T23:04:08.171Z,29.27
2022-11-13T23:06:37.190Z,30.50
2022-11-13T23:09:05.997Z,28.15
2022-11-13T23:11:37.980Z,26.75
2022-11-13T23:14:08.022Z,31.58
2022-11-13T23:16:37.963Z,28.42
2022-11-13T23:19:06.450Z,29.42
2022-11-13T23:21:34.940Z,31.35
2022-11-13T23:24:03.394Z,39.80
2022-11-13T23:26:32.005Z,39.40
2022-11-13T23:29:00.527Z,62.20
2022-11-13T23:31:29.029Z,82.47
2022-11-13T23:33:58.878Z,86.38
2022-11-13T23:36:28.268Z,101.75
2022-11-13T23:38:56.757Z,94.47
2022-11-13T23:41:25.671Z,105.53
2022-11-13T23:44:08.121Z,85.75
2022-11-13T23:46:37.538Z,99.47
2022-11-13T23:49:07.367Z,90.80
2022-11-13T23:51:35.907Z,80.03
2022-11-13T23:54:04.327Z,64.75
2022-11-13T23:56:32.835Z,69.85
2022-11-13T23:59:01.391Z,58.90
